createdAt,value
2017-06-04T00:01:50.000Z,52.1
2017-06-04T00:11:51.000Z,52.2
2017-06-04T00:21:51.000Z,52.3
2017-06-04T00:31:50.000Z,52.8
2017-06-04T00:41:51.000Z,53.3
2017-06-04T00:51:50.000Z,53
2017-06-04T01:01:51.000Z,53.6
2017-06-04T01:11:51.000Z,54
2017-06-04T01:21:50.000Z,54
2017-06-04T01:31:51.000Z,54.3
2017-06-04T01:41:50.000Z,54.3
2017-06-04T01:51:51.000Z,54.7
2017-06-04T02:01:50.000Z,52.4
2017-06-04T02:11:56.000Z,51.5
2017-06-04T02:21:50.000Z,51.6
2017-06-04T02:31:51.000Z,51.2
2017-06-04T02:41:50.000Z,51.3
2017-06-04T02:51:51.000Z,51.6
2017-06-04T03:01:50.000Z,51.2
2017-06-04T03:11:52.000Z,50.8
2017-06-04T03:21:51.000Z,50.9
2017-06-04T03:31:51.000Z,51.5
2017-06-04T03:41:51.000Z,52.3
2017-06-04T03:51:51.000Z,53.9
2017-06-04T04:01:53.000Z,53.7
2017-06-04T04:11:51.000Z,53.7
2017-06-04T04:21:51.000Z,54.4
2017-06-04T04:31:51.000Z,54.6
2017-06-04T04:41:51.000Z,54.9
2017-06-04T04:51:51.000Z,54.7
2017-06-04T05:01:51.000Z,55
2017-06-04T05:11:51.000Z,55.2
2017-06-04T05:21:51.000Z,54.8
2017-06-04T05:31:51.000Z,54.4
2017-06-04T05:41:51.000Z,53.9
2017-06-04T05:51:51.000Z,53.3
2017-06-04T06:01:51.000Z,52.5
2017-06-04T06:11:51.000Z,51.6
2017-06-04T06:21:51.000Z,51.4
2017-06-04T06:31:51.000Z,50.8
2017-06-04T06:41:51.000Z,50.4
2017-06-04T06:51:52.000Z,49.4
2017-06-04T07:01:52.000Z,49
2017-06-04T07:11:52.000Z,48.6
2017-06-04T07:21:51.000Z,48.4
2017-06-04T07:31:54.000Z,46.4
2017-06-04T07:41:51.000Z,46.9
2017-06-04T07:51:52.000Z,46.2
2017-06-04T08:01:51.000Z,45.1
2017-06-04T08:11:52.000Z,44.2
2017-06-04T08:21:51.000Z,44
2017-06-04T08:31:52.000Z,43.4
2017-06-04T08:41:51.000Z,42.5
2017-06-04T08:51:52.000Z,41.7
2017-06-04T09:01:51.000Z,41.3
2017-06-04T09:11:52.000Z,40.8
2017-06-04T09:21:51.000Z,40.4
2017-06-04T09:31:54.000Z,39.8
2017-06-04T09:41:51.000Z,39.8
2017-06-04T09:51:52.000Z,39.9
2017-06-04T10:01:52.000Z,39.6
2017-06-04T10:11:52.000Z,39.7
2017-06-04T10:21:52.000Z,39.4
2017-06-04T10:31:54.000Z,38.9
2017-06-04T10:41:52.000Z,38.4
2017-06-04T10:51:52.000Z,37.9
2017-06-04T11:01:52.000Z,37.3
2017-06-04T11:11:52.000Z,37
2017-06-04T11:21:52.000Z,36.6
2017-06-04T11:31:52.000Z,36.5
2017-06-04T11:41:52.000Z,36.7
2017-06-04T11:51:52.000Z,37.2
2017-06-04T12:01:55.000Z,37.2
2017-06-04T12:11:52.000Z,37.2
2017-06-04T12:21:52.000Z,37.8
2017-06-04T12:31:55.000Z,37.9
2017-06-04T12:41:52.000Z,38
2017-06-04T12:51:52.000Z,38.4
2017-06-04T13:01:54.000Z,40
2017-06-04T13:11:52.000Z,40.7
2017-06-04T13:21:52.000Z,41.3
2017-06-04T13:31:52.000Z,41.5
2017-06-04T13:41:54.000Z,41.9
2017-06-04T13:51:52.000Z,41.3
2017-06-04T14:01:52.000Z,40.7
2017-06-04T14:11:53.000Z,41.3
2017-06-04T14:21:53.000Z,41.4
2017-06-04T14:31:52.000Z,41.6
2017-06-04T14:41:53.000Z,42
2017-06-04T14:51:53.000Z,42.6
2017-06-04T15:01:52.000Z,42.8
2017-06-04T15:11:53.000Z,42.8
2017-06-04T15:21:53.000Z,42.2
2017-06-04T15:31:54.000Z,42.9
2017-06-04T15:41:54.000Z,42.8
2017-06-04T15:51:52.000Z,42.7
2017-06-04T16:01:53.000Z,42.7
2017-06-04T16:11:53.000Z,42.4
2017-06-04T16:21:53.000Z,43
2017-06-04T16:31:53.000Z,43.5
2017-06-04T16:41:54.000Z,42.4
2017-06-04T16:51:55.000Z,41.7
2017-06-04T17:01:53.000Z,41.7
2017-06-04T17:11:53.000Z,42.8
2017-06-04T17:22:00.000Z,41.6
2017-06-04T17:31:53.000Z,41.5
2017-06-04T17:41:53.000Z,41.5
2017-06-04T17:51:53.000Z,41.6
2017-06-04T18:01:53.000Z,41.9
2017-06-04T18:11:53.000Z,41.6
2017-06-04T18:21:53.000Z,41.7
2017-06-04T18:31:53.000Z,41.6
2017-06-04T18:41:53.000Z,41.8
2017-06-04T18:51:53.000Z,41.8
2017-06-04T19:01:53.000Z,41.8
2017-06-04T19:11:53.000Z,41.4
2017-06-04T19:21:54.000Z,40.9
2017-06-04T19:31:53.000Z,40.5
2017-06-04T19:41:55.000Z,40.2
2017-06-04T19:51:53.000Z,39.8
2017-06-04T20:01:54.000Z,39.6
2017-06-04T20:11:53.000Z,39.6
2017-06-04T20:21:53.000Z,41.2
2017-06-04T20:31:53.000Z,39.8
2017-06-04T20:41:54.000Z,39.7
2017-06-04T20:51:53.000Z,39.6
2017-06-04T21:01:54.000Z,39.5
2017-06-04T21:11:53.000Z,39.4
2017-06-04T21:21:54.000Z,39.4
2017-06-04T21:31:53.000Z,39.3
2017-06-04T21:41:54.000Z,39.3
2017-06-04T21:51:53.000Z,39.3
2017-06-04T22:01:54.000Z,39.2
2017-06-04T22:11:53.000Z,39.3
2017-06-04T22:21:54.000Z,39.2
2017-06-04T22:31:54.000Z,39
2017-06-04T22:41:54.000Z,39.2
2017-06-04T22:51:54.000Z,39.1
2017-06-04T23:01:54.000Z,39
2017-06-04T23:11:54.000Z,39
2017-06-04T23:21:54.000Z,39
2017-06-04T23:31:54.000Z,38.9
2017-06-04T23:41:54.000Z,38.8
2017-06-04T23:51:55.000Z,38.8
